Saipan, MP

1:55 PM ChST on June 30, 2015 (GMT +1000)
Red Cross-Airport | | Change Station
CLOSE
Current Station
Personal Weather Station
Location: Saipan, MP
Elevation: 215 ft
Nearby Weather Stations

Elev 215 ft 15.13 °N, 145.72 °E | Updated 14 minutes ago

Scattered Clouds
Scattered Clouds
86.3 °F
Feels Like 104 °F
N
9.0
Wind Variable Wind from ENE
Gusts 16.0 mph

Today
High -- | Low -- °F
--% Chance of Precip.
Yesterday
High -- | Low -- °F
Precip. -- in
5:49 AM 6:51 PM
Waxing Gibbous, 95% visible
Pressure 29.91 in
Visibility 10.0 miles
Clouds Scattered Clouds 2000 ft
Heat Index 104 °F
Dew Point 82 °F
Humidity 86%
Rainfall in
Snow Depth Not available.
UV 13 out of 12
Pollen Not available.
Air Quality Not available.
Flu Activity
METAR PGSN 300154Z 06013KT 10SM SCT020 32/24 A2985 RMK AO2 SLP127 T03170244

More Conditions Fewer Conditions

Pressure 29.91 in
Visibility 10.0 miles
Clouds Scattered Clouds 2000 ft
Heat Index 104 °F
Dew Point 82 °F
Humidity 86%
Rainfall in
Snow Depth Not available.
UV 13 out of 12
Pollen Not available.
Air Quality Not available.
Flu Activity
METAR PGSN 300154Z 06013KT 10SM SCT020 32/24 A2985 RMK AO2 SLP127 T03170244

More Conditions Fewer Conditions

10-Day Weather Forecast

×

Almanac

Astronomy

Jun. 30, 2015 Rise Set
Actual Time
Civil Twilight
Nautical Twilight
Astronomical Twilight
Moon
Length of Visible Light
Length of Day
Tomorrow will be .
, % of the Moon is Illuminated

Today's Extremes

State Highs State Lows

Community

WunderPhotos

Upload Photos

1,833,956 photos uploaded!

WunderBlogs® & News

Nearby

Air Quality

  Air Quality AQ Index Pollutant
Not available.

Snow Depth

Station Depth Elevation

Earthquake Activity

City Distance Mag. Time & Date
Minimum magnitude displayed is 2.5.

Coastal Water Temperatures

Place Temperature

Stations

Nearby Weather Stations

Station Location Temp. Windchill Dew Point Humidity Wind Precip. Elev Updated Type